createdAt,value
2019-02-24T00:00:58.195Z,13.15
2019-02-24T00:03:26.471Z,13.38
2019-02-24T00:05:54.760Z,15.40
2019-02-24T00:08:23.019Z,14.80
2019-02-24T00:10:51.309Z,12.63
2019-02-24T00:13:19.581Z,13.18
2019-02-24T00:15:47.875Z,14.10
2019-02-24T00:18:16.147Z,16.93
2019-02-24T00:20:44.428Z,13.70
2019-02-24T00:23:12.705Z,14.63
2019-02-24T00:25:40.990Z,13.43
2019-02-24T00:28:09.267Z,15.23
2019-02-24T00:30:37.539Z,13.57
2019-02-24T00:33:05.828Z,19.50
2019-02-24T00:35:34.113Z,16.32
2019-02-24T00:38:02.392Z,15.40
2019-02-24T00:40:30.676Z,15.80
2019-02-24T00:42:58.969Z,16.57
2019-02-24T00:45:27.237Z,18.63
2019-02-24T00:47:55.510Z,14.57
2019-02-24T00:50:23.793Z,16.13
2019-02-24T00:52:52.253Z,14.03
2019-02-24T00:55:20.520Z,15.07
2019-02-24T00:57:48.794Z,14.50
2019-02-24T01:00:17.131Z,14.73
2019-02-24T01:02:45.412Z,14.23
2019-02-24T01:05:13.702Z,13.32
2019-02-24T01:07:41.970Z,18.50
2019-02-24T01:10:10.328Z,20.73
2019-02-24T01:12:38.590Z,13.17
2019-02-24T01:15:09.413Z,16.27
2019-02-24T01:17:37.680Z,16.37
2019-02-24T01:20:08.504Z,18.93
2019-02-24T01:22:36.771Z,15.80
2019-02-24T01:25:05.316Z,13.90
2019-02-24T01:27:33.621Z,14.93
2019-02-24T01:30:01.938Z,19.10
2019-02-24T01:32:30.206Z,17.47
2019-02-24T01:34:58.509Z,16.67
2019-02-24T01:37:26.789Z,15.00
2019-02-24T01:39:55.062Z,19.07
2019-02-24T01:42:23.348Z,16.02
2019-02-24T01:44:51.639Z,18.40
2019-02-24T01:47:19.993Z,18.83
2019-02-24T01:49:48.285Z,17.37
2019-02-24T01:52:16.584Z,15.45
2019-02-24T01:54:44.875Z,14.73
2019-02-24T01:57:13.160Z,15.10
2019-02-24T01:59:41.429Z,16.50
2019-02-24T02:02:09.706Z,17.67
2019-02-24T02:04:37.975Z,18.10
2019-02-24T02:07:06.268Z,18.47
2019-02-24T02:09:34.569Z,17.90
2019-02-24T02:12:02.858Z,15.43
2019-02-24T02:14:31.146Z,17.30
2019-02-24T02:16:59.442Z,19.03
2019-02-24T02:19:27.756Z,16.43
2019-02-24T02:21:56.048Z,18.23
2019-02-24T02:24:24.330Z,15.10
2019-02-24T02:26:52.651Z,13.90
2019-02-24T02:29:20.922Z,16.10
2019-02-24T02:31:49.210Z,17.60
2019-02-24T02:34:17.471Z,15.47
2019-02-24T02:36:45.761Z,16.40
2019-02-24T02:39:14.071Z,17.57
2019-02-24T02:41:42.330Z,15.43
2019-02-24T02:44:10.611Z,14.93
2019-02-24T02:46:38.913Z,18.03
2019-02-24T02:49:07.173Z,17.17
2019-02-24T02:51:35.503Z,18.90
2019-02-24T02:54:03.775Z,16.87
2019-02-24T02:56:32.059Z,13.97
2019-02-24T02:59:00.366Z,17.95
2019-02-24T03:01:28.646Z,17.33
2019-02-24T03:03:56.937Z,15.83
2019-02-24T03:06:26.851Z,16.73
2019-02-24T03:08:55.127Z,15.10
2019-02-24T03:11:23.432Z,16.30
2019-02-24T03:13:51.757Z,16.43
2019-02-24T03:16:23.072Z,19.30
2019-02-24T03:18:51.505Z,16.52
2019-02-24T03:21:19.782Z,19.77
2019-02-24T03:23:48.067Z,17.70
2019-02-24T03:26:16.345Z,16.27
2019-02-24T03:28:44.636Z,15.80
2019-02-24T03:31:12.935Z,18.60
2019-02-24T03:33:44.645Z,16.67
2019-02-24T03:36:11.351Z,14.60
2019-02-24T03:38:39.629Z,17.37
2019-02-24T03:41:07.918Z,19.87
2019-02-24T03:43:36.190Z,19.77
2019-02-24T03:46:04.496Z,17.05
2019-02-24T03:48:32.787Z,17.12
2019-02-24T03:51:01.093Z,17.80
2019-02-24T03:53:29.364Z,18.90
2019-02-24T03:55:57.748Z,18.83
2019-02-24T03:58:26.020Z,17.37
2019-02-24T04:00:54.293Z,16.93
2019-02-24T04:03:22.584Z,18.30
2019-02-24T04:05:50.844Z,19.25
2019-02-24T04:08:19.141Z,17.20
2019-02-24T04:10:47.434Z,21.37
2019-02-24T04:13:15.712Z,18.57
2019-02-24T04:15:44.014Z,21.60
2019-02-24T04:18:12.310Z,17.90
2019-02-24T04:20:40.605Z,18.40
2019-02-24T04:23:08.874Z,22.02
2019-02-24T04:25:37.155Z,15.50
2019-02-24T04:28:05.438Z,24.17
2019-02-24T04:30:33.721Z,18.47
2019-02-24T04:33:01.999Z,18.10
2019-02-24T04:35:30.299Z,14.97
2019-02-24T04:37:58.593Z,17.20
2019-02-24T04:40:26.885Z,17.60
2019-02-24T04:42:55.175Z,22.82
2019-02-24T04:45:23.476Z,19.53
2019-02-24T04:47:51.754Z,19.77
2019-02-24T04:50:20.059Z,20.87
2019-02-24T04:52:48.357Z,21.90
2019-02-24T04:55:16.621Z,20.70
2019-02-24T04:57:45.000Z,20.53
2019-02-24T05:00:13.326Z,20.33
2019-02-24T05:02:41.582Z,21.87
2019-02-24T05:05:09.882Z,22.90
2019-02-24T05:07:38.179Z,18.32
2019-02-24T05:10:06.722Z,20.07
2019-02-24T05:12:35.013Z,23.03
2019-02-24T05:15:03.564Z,21.77
2019-02-24T05:17:31.835Z,20.53
2019-02-24T05:20:00.195Z,20.17
2019-02-24T05:22:28.579Z,20.57
2019-02-24T05:24:56.870Z,24.37
2019-02-24T05:27:25.171Z,22.45
2019-02-24T05:29:53.619Z,21.20
2019-02-24T05:32:21.915Z,22.55
2019-02-24T05:34:50.206Z,22.00
2019-02-24T05:37:18.474Z,23.27
2019-02-24T05:39:46.781Z,22.27
2019-02-24T05:42:15.086Z,22.22
2019-02-24T05:44:43.393Z,16.80
2019-02-24T05:47:11.701Z,24.93
2019-02-24T05:49:40.002Z,21.13
2019-02-24T05:52:08.309Z,20.40
2019-02-24T05:54:36.576Z,24.87
2019-02-24T05:57:04.872Z,25.50
2019-02-24T05:59:33.163Z,27.13
2019-02-24T06:02:01.448Z,20.43
2019-02-24T06:04:29.729Z,22.10
2019-02-24T06:06:58.030Z,23.43
2019-02-24T06:09:26.355Z,22.83
2019-02-24T06:11:54.647Z,20.00
2019-02-24T06:14:22.930Z,21.33
2019-02-24T06:16:51.229Z,25.10
2019-02-24T06:19:19.548Z,23.93
2019-02-24T06:21:47.823Z,23.47
2019-02-24T06:24:16.096Z,25.33
2019-02-24T06:26:44.376Z,22.00
2019-02-24T06:29:12.661Z,23.00
2019-02-24T06:31:40.955Z,22.73
2019-02-24T06:34:09.224Z,22.73
2019-02-24T06:36:37.496Z,21.23
2019-02-24T06:39:07.502Z,26.43
2019-02-24T06:41:35.789Z,21.50
2019-02-24T06:44:04.075Z,25.57
2019-02-24T06:46:32.348Z,20.83
2019-02-24T06:49:00.640Z,23.40
2019-02-24T06:51:28.991Z,21.25
2019-02-24T06:53:57.263Z,29.53
2019-02-24T06:56:25.558Z,24.47
2019-02-24T06:58:53.857Z,25.03
2019-02-24T07:01:22.154Z,20.93
2019-02-24T07:03:50.431Z,24.73
2019-02-24T07:06:18.722Z,20.50
2019-02-24T07:08:48.176Z,18.77
2019-02-24T07:11:16.480Z,20.10
2019-02-24T07:13:44.770Z,20.05
2019-02-24T07:16:13.042Z,22.00
2019-02-24T07:18:41.333Z,24.83
2019-02-24T07:21:09.858Z,25.77
2019-02-24T07:23:38.843Z,27.45
2019-02-24T07:26:07.931Z,26.02
2019-02-24T07:28:36.205Z,27.50
2019-02-24T07:31:04.481Z,22.77
2019-02-24T07:33:32.760Z,23.27
2019-02-24T07:36:01.023Z,21.83
2019-02-24T07:38:29.331Z,22.37
2019-02-24T07:40:57.605Z,21.75
2019-02-24T07:43:25.875Z,23.50
2019-02-24T07:45:54.161Z,23.30
2019-02-24T07:48:22.455Z,22.83
2019-02-24T07:50:50.725Z,21.40
2019-02-24T07:53:19.006Z,23.00
2019-02-24T07:55:47.277Z,20.33
2019-02-24T07:58:15.569Z,20.45
2019-02-24T08:00:43.843Z,24.83
2019-02-24T08:03:12.119Z,24.73
2019-02-24T08:05:40.398Z,21.10
2019-02-24T08:08:16.277Z,22.87
2019-02-24T08:10:38.669Z,24.07
2019-02-24T08:13:06.955Z,22.47
2019-02-24T08:15:35.229Z,22.10
2019-02-24T08:18:03.510Z,20.10
2019-02-24T08:20:33.401Z,23.90
2019-02-24T08:23:01.743Z,25.90
2019-02-24T08:25:30.026Z,21.47
2019-02-24T08:27:58.300Z,20.90
2019-02-24T08:30:26.572Z,20.70
2019-02-24T08:32:54.844Z,20.40
2019-02-24T08:35:23.146Z,20.27
2019-02-24T08:37:51.473Z,23.03
2019-02-24T08:40:19.768Z,19.73
2019-02-24T08:42:48.027Z,23.43
2019-02-24T08:45:16.300Z,18.97
2019-02-24T08:47:44.580Z,21.07
2019-02-24T08:50:12.860Z,19.53
2019-02-24T08:52:41.122Z,17.80
2019-02-24T08:55:09.426Z,17.33
2019-02-24T08:57:37.686Z,19.57
2019-02-24T09:00:09.140Z,21.57
2019-02-24T09:02:37.428Z,22.57
2019-02-24T09:05:06.417Z,20.47
2019-02-24T09:07:35.370Z,20.77
2019-02-24T09:10:03.907Z,18.92
2019-02-24T09:12:32.212Z,18.77
2019-02-24T09:15:00.487Z,20.08
2019-02-24T09:17:28.759Z,18.12
2019-02-24T09:19:57.044Z,17.15
2019-02-24T09:22:25.329Z,18.90
2019-02-24T09:24:53.617Z,17.43
2019-02-24T09:27:21.895Z,16.90
2019-02-24T09:29:50.199Z,18.83
2019-02-24T09:32:18.475Z,18.23
2019-02-24T09:34:46.746Z,19.45
2019-02-24T09:37:15.036Z,18.23
2019-02-24T09:39:43.337Z,18.43
2019-02-24T09:42:11.595Z,21.20
2019-02-24T09:44:39.871Z,20.00
2019-02-24T09:47:08.153Z,19.73
2019-02-24T09:49:36.448Z,19.30
2019-02-24T09:52:04.719Z,20.25
2019-02-24T09:54:33.008Z,16.27
2019-02-24T09:57:01.283Z,16.97
2019-02-24T09:59:29.588Z,18.03
2019-02-24T10:01:57.875Z,20.70
2019-02-24T10:04:26.137Z,18.20
2019-02-24T10:06:54.446Z,18.50
2019-02-24T10:09:22.723Z,17.92
2019-02-24T10:11:51.005Z,20.33
2019-02-24T10:14:19.273Z,20.10
2019-02-24T10:16:47.555Z,17.73
2019-02-24T10:19:15.828Z,19.30
2019-02-24T10:21:44.112Z,19.87
2019-02-24T10:24:12.379Z,18.80
2019-02-24T10:26:40.659Z,19.10
2019-02-24T10:29:08.928Z,21.63
2019-02-24T10:31:37.229Z,20.43
2019-02-24T10:34:07.507Z,16.63
2019-02-24T10:36:35.525Z,19.30
2019-02-24T10:39:04.154Z,21.50
2019-02-24T10:41:32.430Z,19.02
2019-02-24T10:44:00.691Z,21.50
2019-02-24T10:46:28.964Z,20.73
2019-02-24T10:49:03.438Z,20.90
2019-02-24T10:51:27.233Z,21.10
2019-02-24T10:53:55.514Z,20.30
2019-02-24T10:56:23.781Z,19.60
2019-02-24T10:58:52.059Z,19.07
2019-02-24T11:01:29.033Z,17.92
2019-02-24T11:03:50.363Z,20.23
2019-02-24T11:06:18.646Z,20.52
2019-02-24T11:08:46.937Z,20.85
2019-02-24T11:11:15.207Z,19.80
2019-02-24T11:13:43.488Z,17.85
2019-02-24T11:16:11.759Z,18.93
2019-02-24T11:18:40.049Z,19.37
2019-02-24T11:21:08.315Z,23.40
2019-02-24T11:23:36.594Z,18.40
2019-02-24T11:26:04.866Z,19.98
2019-02-24T11:28:33.148Z,18.37
2019-02-24T11:31:01.430Z,20.27
2019-02-24T11:33:29.717Z,20.27
2019-02-24T11:35:57.993Z,17.63
2019-02-24T11:38:26.293Z,16.23
2019-02-24T11:40:54.570Z,19.20
2019-02-24T11:43:22.849Z,17.55
2019-02-24T11:45:51.135Z,17.90
2019-02-24T11:48:19.427Z,17.33
2019-02-24T11:50:47.710Z,15.80
2019-02-24T11:53:15.990Z,17.10
2019-02-24T11:55:44.279Z,18.67
2019-02-24T11:58:12.571Z,15.75
2019-02-24T12:00:40.854Z,16.73
2019-02-24T12:03:09.128Z,13.87
2019-02-24T12:05:37.423Z,15.70
2019-02-24T12:08:05.698Z,15.80
2019-02-24T12:10:33.989Z,16.30
2019-02-24T12:13:02.283Z,15.55
2019-02-24T12:15:30.561Z,15.43
2019-02-24T12:17:58.834Z,16.00
2019-02-24T12:20:27.103Z,15.37
2019-02-24T12:22:55.374Z,14.73
2019-02-24T12:25:23.657Z,17.43
2019-02-24T12:27:51.941Z,15.72
2019-02-24T12:30:20.225Z,15.77
2019-02-24T12:32:48.528Z,15.80
2019-02-24T12:35:16.796Z,15.50
2019-02-24T12:37:45.091Z,15.67
2019-02-24T12:40:14.320Z,16.67
2019-02-24T12:42:42.608Z,14.03
2019-02-24T12:45:11.524Z,15.43
2019-02-24T12:47:39.805Z,16.60
2019-02-24T12:50:11.197Z,15.93
2019-02-24T12:52:39.494Z,16.32
2019-02-24T12:55:08.820Z,16.17
2019-02-24T12:57:37.093Z,17.10
2019-02-24T13:00:13.291Z,14.45
2019-02-24T13:02:41.584Z,15.23
2019-02-24T13:05:09.916Z,15.33
2019-02-24T13:07:38.217Z,15.98
2019-02-24T13:10:09.594Z,14.70
2019-02-24T13:12:37.873Z,17.70
2019-02-24T13:15:06.297Z,15.10
2019-02-24T13:17:34.576Z,14.50
2019-02-24T13:20:02.853Z,14.60
2019-02-24T13:22:31.134Z,14.10
2019-02-24T13:24:59.421Z,14.67
2019-02-24T13:27:27.693Z,14.80
2019-02-24T13:29:55.968Z,16.30
2019-02-24T13:32:24.246Z,15.27
2019-02-24T13:34:52.571Z,16.57
2019-02-24T13:37:20.866Z,17.60
2019-02-24T13:39:49.139Z,14.20
2019-02-24T13:42:17.416Z,16.03
2019-02-24T13:44:45.716Z,13.43
2019-02-24T13:47:14.013Z,12.27
2019-02-24T13:49:43.034Z,13.93
2019-02-24T13:52:11.361Z,17.37
2019-02-24T13:54:39.637Z,14.20
2019-02-24T13:57:07.924Z,13.40
2019-02-24T13:59:36.197Z,13.23
2019-02-24T14:02:04.490Z,13.07
2019-02-24T14:04:32.787Z,11.60
2019-02-24T14:07:01.056Z,12.25
2019-02-24T14:09:29.347Z,13.70
2019-02-24T14:11:57.619Z,12.80
2019-02-24T14:14:25.918Z,12.90
2019-02-24T14:16:54.357Z,14.60
2019-02-24T14:19:22.644Z,13.65
2019-02-24T14:21:50.926Z,14.30
2019-02-24T14:24:20.037Z,15.60
2019-02-24T14:26:48.370Z,12.50
2019-02-24T14:29:17.260Z,11.97
2019-02-24T14:31:45.542Z,13.30
2019-02-24T14:34:13.825Z,13.53
2019-02-24T14:36:42.103Z,13.48
2019-02-24T14:39:10.466Z,15.30
2019-02-24T14:41:38.750Z,14.85
2019-02-24T14:44:07.034Z,15.43
2019-02-24T14:46:35.749Z,12.53
2019-02-24T14:49:04.039Z,14.28
2019-02-24T14:51:32.300Z,13.73
2019-02-24T14:54:00.581Z,14.07
2019-02-24T14:56:28.877Z,12.67
2019-02-24T14:58:57.148Z,13.35
2019-02-24T15:01:25.428Z,14.37
2019-02-24T15:03:53.709Z,17.93
2019-02-24T15:06:21.983Z,14.50
2019-02-24T15:08:50.259Z,14.83
2019-02-24T15:11:18.538Z,12.10
2019-02-24T15:13:46.819Z,13.65
2019-02-24T15:16:15.109Z,12.57
2019-02-24T15:18:43.405Z,11.57
2019-02-24T15:21:11.738Z,11.03
2019-02-24T15:23:40.036Z,11.50
2019-02-24T15:26:08.306Z,11.83
2019-02-24T15:28:36.566Z,12.68
2019-02-24T15:31:04.842Z,10.67
2019-02-24T15:33:33.136Z,17.53
2019-02-24T15:36:01.429Z,12.73
2019-02-24T15:38:29.731Z,12.93
2019-02-24T15:40:57.995Z,12.50
2019-02-24T15:43:26.286Z,12.90
2019-02-24T15:45:54.557Z,13.30
2019-02-24T15:48:22.839Z,12.50
2019-02-24T15:50:51.113Z,12.40
2019-02-24T15:53:19.427Z,13.43
2019-02-24T15:55:47.714Z,12.50
2019-02-24T15:58:17.828Z,12.60
2019-02-24T16:00:46.029Z,14.30
2019-02-24T16:03:14.333Z,13.07
2019-02-24T16:05:42.599Z,11.93
2019-02-24T16:08:10.915Z,13.30
2019-02-24T16:10:41.237Z,10.20
2019-02-24T16:13:16.741Z,11.67
2019-02-24T16:15:39.496Z,15.37
2019-02-24T16:18:07.774Z,12.30
2019-02-24T16:20:37.294Z,12.30
2019-02-24T16:23:05.563Z,11.93
2019-02-24T16:25:33.830Z,14.53
2019-02-24T16:28:02.110Z,13.08
2019-02-24T16:30:30.389Z,12.55
2019-02-24T16:32:58.663Z,12.27
2019-02-24T16:35:26.935Z,12.07
2019-02-24T16:37:55.209Z,13.53
2019-02-24T16:40:27.816Z,11.70
2019-02-24T16:42:56.089Z,12.00
2019-02-24T16:45:24.371Z,14.20
2019-02-24T16:47:52.652Z,12.43
2019-02-24T16:50:24.442Z,12.37
2019-02-24T16:52:52.786Z,13.40
2019-02-24T16:55:21.082Z,16.20
2019-02-24T16:57:49.355Z,15.70
2019-02-24T17:00:24.433Z,14.30
2019-02-24T17:02:52.713Z,12.50
2019-02-24T17:05:21.012Z,14.63
2019-02-24T17:07:49.442Z,16.10
2019-02-24T17:10:19.268Z,15.20
2019-02-24T17:12:47.624Z,16.93
2019-02-24T17:15:15.908Z,16.63
2019-02-24T17:17:44.260Z,16.70
2019-02-24T17:20:29.686Z,18.20
2019-02-24T17:22:57.952Z,16.52
2019-02-24T17:25:26.225Z,16.17
2019-02-24T17:27:54.489Z,19.50
2019-02-24T17:30:23.853Z,16.23
2019-02-24T17:32:52.316Z,18.20
2019-02-24T17:35:20.591Z,18.07
2019-02-24T17:37:48.851Z,18.45
2019-02-24T17:40:20.953Z,20.97
2019-02-24T17:42:49.236Z,20.43
2019-02-24T17:45:17.574Z,24.43
2019-02-24T17:47:45.863Z,18.60
2019-02-24T17:50:17.879Z,21.35
2019-02-24T17:52:46.114Z,21.50
2019-02-24T17:55:19.112Z,23.80
2019-02-24T17:57:47.398Z,21.60
2019-02-24T18:00:28.822Z,19.97
2019-02-24T18:02:57.463Z,21.80
2019-02-24T18:05:25.745Z,20.13
2019-02-24T18:07:54.063Z,21.50
2019-02-24T18:10:22.342Z,20.70
2019-02-24T18:12:50.619Z,21.60
2019-02-24T18:15:18.893Z,21.52
2019-02-24T18:17:47.155Z,21.40
2019-02-24T18:20:17.185Z,22.10
2019-02-24T18:22:45.459Z,24.50
2019-02-24T18:25:13.739Z,21.63
2019-02-24T18:27:42.010Z,22.60
2019-02-24T18:30:21.828Z,20.10
2019-02-24T18:32:50.093Z,26.50
2019-02-24T18:35:18.391Z,22.60
2019-02-24T18:37:46.671Z,25.07
2019-02-24T18:40:15.679Z,26.53
2019-02-24T18:42:43.968Z,22.10
2019-02-24T18:45:14.362Z,23.07
2019-02-24T18:47:42.633Z,25.47
2019-02-24T18:50:15.583Z,21.30
2019-02-24T18:52:43.840Z,25.85
2019-02-24T18:55:12.660Z,21.95
2019-02-24T18:57:40.940Z,21.37
2019-02-24T19:00:19.558Z,21.67
2019-02-24T19:02:47.848Z,25.17
2019-02-24T19:05:16.114Z,23.37
2019-02-24T19:07:44.467Z,21.82
2019-02-24T19:10:21.405Z,21.30
2019-02-24T19:12:49.764Z,22.47
2019-02-24T19:15:20.438Z,22.75
2019-02-24T19:17:48.702Z,25.37
2019-02-24T19:20:18.613Z,23.67
2019-02-24T19:22:46.899Z,21.67
2019-02-24T19:25:15.180Z,25.93
2019-02-24T19:27:43.481Z,23.87
2019-02-24T19:30:14.934Z,20.87
2019-02-24T19:32:43.197Z,20.80
2019-02-24T19:35:12.917Z,22.93
2019-02-24T19:37:41.181Z,29.35
2019-02-24T19:40:14.969Z,23.22
2019-02-24T19:42:43.241Z,26.27
2019-02-24T19:45:14.246Z,25.30
2019-02-24T19:47:42.526Z,24.87
2019-02-24T19:50:13.342Z,26.55
2019-02-24T19:52:41.622Z,23.10
2019-02-24T19:55:11.426Z,26.70
2019-02-24T19:57:39.715Z,25.73
2019-02-24T20:00:16.763Z,24.57
2019-02-24T20:02:45.036Z,26.40
2019-02-24T20:05:13.314Z,25.57
2019-02-24T20:07:41.600Z,25.52
2019-02-24T20:10:15.619Z,26.43
2019-02-24T20:12:44.067Z,29.70
2019-02-24T20:15:14.373Z,28.00
2019-02-24T20:17:42.668Z,32.05
2019-02-24T20:20:13.752Z,27.02
2019-02-24T20:22:42.031Z,30.92
2019-02-24T20:25:12.541Z,25.73
2019-02-24T20:27:40.827Z,31.57
2019-02-24T20:30:23.350Z,29.93
2019-02-24T20:32:51.626Z,35.00
2019-02-24T20:35:19.887Z,26.37
2019-02-24T20:37:48.181Z,29.72
2019-02-24T20:40:16.490Z,34.20
2019-02-24T20:42:44.747Z,30.50
2019-02-24T20:45:16.120Z,34.57
2019-02-24T20:47:44.416Z,31.07
2019-02-24T20:50:15.996Z,31.75
2019-02-24T20:52:44.268Z,28.17
2019-02-24T20:55:12.597Z,29.30
2019-02-24T20:57:40.875Z,39.63
2019-02-24T21:00:27.274Z,29.73
2019-02-24T21:02:55.553Z,34.20
2019-02-24T21:05:23.849Z,34.53
2019-02-24T21:07:52.133Z,30.77
2019-02-24T21:10:20.418Z,33.00
2019-02-24T21:12:48.697Z,30.00
2019-02-24T21:15:17.808Z,30.77
2019-02-24T21:17:46.087Z,34.03
2019-02-24T21:20:31.141Z,28.83
2019-02-24T21:22:59.408Z,27.52
2019-02-24T21:25:27.696Z,33.90
2019-02-24T21:27:55.962Z,29.15
2019-02-24T21:30:24.227Z,32.42
2019-02-24T21:32:52.518Z,33.43
2019-02-24T21:35:20.782Z,31.50
2019-02-24T21:37:49.057Z,30.57
2019-02-24T21:40:20.906Z,28.50
2019-02-24T21:42:49.190Z,26.60
2019-02-24T21:45:25.635Z,31.20
2019-02-24T21:47:53.919Z,28.90
2019-02-24T21:50:22.256Z,29.70
2019-02-24T21:52:50.537Z,32.97
2019-02-24T21:55:18.883Z,29.13
2019-02-24T21:57:47.150Z,28.85
2019-02-24T22:00:17.964Z,31.23
2019-02-24T22:02:46.257Z,29.03
2019-02-24T22:05:14.591Z,30.33
2019-02-24T22:07:42.854Z,33.35
2019-02-24T22:10:12.667Z,35.67
2019-02-24T22:12:40.953Z,34.03
2019-02-24T22:15:11.970Z,25.57
2019-02-24T22:17:40.240Z,31.50
2019-02-24T22:20:09.855Z,48.57
2019-02-24T22:22:38.140Z,40.07
2019-02-24T22:25:11.389Z,34.20
2019-02-24T22:27:39.652Z,37.23
2019-02-24T22:30:10.976Z,35.48
2019-02-24T22:32:39.342Z,31.23
2019-02-24T22:35:08.788Z,28.90
2019-02-24T22:37:37.075Z,30.40
2019-02-24T22:40:08.553Z,34.80
2019-02-24T22:42:36.819Z,34.38
2019-02-24T22:45:08.565Z,34.08
2019-02-24T22:47:36.907Z,31.37
2019-02-24T22:50:07.528Z,31.17
2019-02-24T22:52:35.797Z,26.25
2019-02-24T22:55:08.959Z,24.25
2019-02-24T22:57:37.239Z,24.17
2019-02-24T23:00:23.622Z,25.23
2019-02-24T23:02:52.261Z,28.53
2019-02-24T23:05:20.552Z,32.40
2019-02-24T23:07:49.877Z,31.10
2019-02-24T23:10:18.203Z,32.35
2019-02-24T23:12:46.482Z,27.60
2019-02-24T23:15:14.757Z,32.80
2019-02-24T23:17:43.016Z,31.90
2019-02-24T23:20:11.303Z,33.90
2019-02-24T23:22:39.593Z,32.47
2019-02-24T23:25:08.002Z,27.50
2019-02-24T23:27:36.276Z,29.90
2019-02-24T23:30:06.688Z,31.67
2019-02-24T23:32:34.968Z,28.07
2019-02-24T23:35:03.831Z,30.20
2019-02-24T23:37:32.108Z,32.50
2019-02-24T23:40:00.378Z,30.80
2019-02-24T23:42:28.699Z,30.57
2019-02-24T23:44:56.921Z,27.90
2019-02-24T23:47:25.202Z,28.05
2019-02-24T23:49:53.482Z,36.35
2019-02-24T23:52:21.763Z,33.33
2019-02-24T23:54:50.050Z,34.03
2019-02-24T23:57:18.307Z,28.77
2019-02-24T23:59:46.576Z,30.50
